Renderfarm Status:OK
Avg Time Per Frame:29.6 min/frame
Total Users Today:0
Total CPU Time Today:49.31 Hours
Total Frames Waiting:0
Today's CPU Champion:shuang23 / 2 days 1 hr
Active Jobs
Job User Frames Renderer Total CPU Average Start End Status
48540 siyniu20 23 arnold 0 Hours 0 min 08/18 01:56 PM Rendering
Completed Jobs
Job User Frames Renderer Total CPU Average Start End Speedup Status
48560 shuang23 100 arnold 49.31 Hours 29.6 min 08/18 11:59 PM 08/19 12:50 AM 57.9x Complete!
48559 awrigh35 20 arnold 0.18 Hours 0.5 min 08/18 11:12 PM 08/18 11:12 PM 10.9x Complete!
48558 awrigh35 100 arnold 1.07 Hours 0.6 min 08/18 11:10 PM 08/18 11:11 PM 55x Complete!
48557 awrigh35 100 arnold 0.89 Hours 0.5 min 08/18 11:08 PM 08/18 11:09 PM 42x Complete!
48556 awrigh35 100 arnold 1.06 Hours 0.6 min 08/18 11:07 PM 08/18 11:08 PM 62.3x Complete!
48555 awrigh35 100 arnold 0.94 Hours 0.6 min 08/18 11:05 PM 08/18 11:06 PM 61.3x Complete!
48554 awrigh35 100 arnold 0.96 Hours 0.6 min 08/18 11:01 PM 08/18 11:02 PM 47.1x Complete!
48553 awrigh35 100 arnold 1.04 Hours 0.6 min 08/18 09:25 PM 08/18 09:26 PM 48.1x Complete!
48552 pbagch20 100 arnold 0.81 Hours 0.5 min 08/18 08:28 PM 08/18 08:29 PM 46.8x Complete!
48551 pbagch20 100 arnold 0.58 Hours 0.3 min 08/18 08:24 PM 08/18 08:25 PM 30.6x Complete!
48550 pbagch20 100 arnold 0 Hours 0 min 08/18 08:21 PM 08/18 08:24 PM 0x Complete!
48549 pbagch20 100 arnold 0.43 Hours 0.3 min 08/18 08:02 PM 08/18 08:03 PM 22.2x Complete!
48548 pbagch20 100 arnold 0 Hours 0 min 08/18 07:58 PM 08/18 08:02 PM 0x Complete!
48547 pbagch20 100 arnold 0.7 Hours 0.4 min 08/18 07:56 PM 08/18 07:57 PM 38.2x Complete!
48546 pbagch20 100 arnold 0 Hours 0 min 08/18 07:53 PM 08/18 07:55 PM 0x Complete!
48545 pbagch20 100 arnold 0 Hours 0 min 08/18 07:38 PM 08/18 07:52 PM 0x Complete!
48544 shuang23 61 arnold 21.71 Hours 21.4 min 08/18 07:37 PM 08/18 08:18 PM 31.5x Complete!
48543 shuang23 65 arnold 6.51 Hours 6 min 08/18 07:25 PM 08/18 07:35 PM 37.1x Complete!
48542 shuang23 61 arnold 22.9 Hours 22.5 min 08/18 06:30 PM 08/18 07:03 PM 42.5x Complete!
48541 ydaoud20 1 houdini 0.66 Hours 39.5 min 08/18 04:55 PM 08/18 05:34 PM 1x Complete!
48539 chulee23 91 arnold 4.08 Hours 2.7 min 08/18 02:12 AM 08/18 02:17 AM 49x Complete!
48538 chulee23 91 arnold 0.37 Hours 0.2 min 08/18 02:00 AM 08/18 02:01 AM 41.2x Complete!
48537 stford20 100 arnold 10.58 Hours 6.3 min 08/17 10:06 PM 08/17 10:53 PM 13.6x Complete!
48536 stford20 100 arnold 9.2 Hours 5.5 min 08/17 09:21 PM 08/17 10:06 PM 12.3x Complete!
48535 jwalke39 100 houdini 0.16 Hours 0.1 min 08/17 07:56 PM 08/17 07:59 PM 3.2x Complete!
48534 jwalke39 100 houdini 0.24 Hours 0.1 min 08/17 07:53 PM 08/17 07:56 PM 4.5x Complete!
48533 ydaoud20 1 houdini 1.02 Hours 61 min 08/17 07:36 PM 08/17 08:37 PM 1x Complete!
48532 botili20 34 arnold 3.13 Hours 5.5 min 08/17 07:26 PM 08/17 07:34 PM 22.6x Complete!
48531 shuang23 65 arnold 50.32 Hours 46.4 min 08/17 07:18 PM 08/17 08:50 PM 33.1x Complete!
48530 botili20 21 arnold 1.6 Hours 4.6 min 08/17 06:55 PM 08/17 07:03 PM 11.9x Complete!
48529 shuang23 61 arnold 44.09 Hours 43.4 min 08/17 05:50 PM 08/17 07:03 PM 36.1x Complete!
48528 botili20 55 arnold 10.67 Hours 11.6 min 08/17 05:41 PM 08/17 05:59 PM 37x Complete!
48527 shuang23 61 arnold 0 Hours 0 min 08/17 05:36 PM 08/17 05:49 PM 0x Complete!
48526 botili20 55 arnold 2.02 Hours 2.2 min 08/17 05:33 PM 08/17 05:36 PM 39.9x Complete!
48525 stford20 20 arnold 0.75 Hours 2.2 min 08/17 05:09 PM 08/17 05:12 PM 13.7x Complete!
48524 botili20 55 arnold 4.28 Hours 4.7 min 08/17 05:04 PM 08/17 05:18 PM 17.6x Complete!
48523 stford20 100 arnold 6.66 Hours 4 min 08/17 04:59 PM 08/17 05:04 PM 67.9x Complete!
48522 stford20 100 arnold 6.5 Hours 3.9 min 08/17 04:32 PM 08/17 04:37 PM 67.6x Complete!
48521 stford20 100 arnold 5.81 Hours 3.5 min 08/17 04:02 PM 08/17 04:07 PM 63.2x Complete!
48520 stford20 1 arnold 0.06 Hours 3.9 min 08/17 03:50 PM 08/17 03:54 PM 0.9x Complete!
48519 shuang23 100 arnold 99.95 Hours 60 min 08/17 03:30 PM 08/17 05:33 PM 48.4x Complete!
48518 stford20 100 arnold 6.35 Hours 3.8 min 08/17 02:42 PM 08/17 02:48 PM 63.7x Complete!
48517 stford20 100 arnold 5.94 Hours 3.6 min 08/17 02:22 PM 08/17 02:28 PM 62.1x Complete!
48516 siyniu20 75 arnold 366.5 Hours 349 min 08/17 02:09 PM 08/18 10:09 AM 18.3x Complete!
48515 stford20 1 arnold 0.06 Hours 3.9 min 08/17 01:57 PM 08/17 02:01 PM 0.9x Complete!
48514 stford20 1 arnold 0.05 Hours 2.9 min 08/17 01:17 PM 08/17 01:20 PM 0.9x Complete!
48513 bnelms20 11 arnold 0.47 Hours 2.6 min 08/17 11:10 AM 08/17 11:14 AM 6.3x Complete!
48512 ccheun21 100 arnold 11.58 Hours 6.9 min 08/17 05:52 AM 08/17 06:09 AM 42.6x Complete!
48511 ccheun21 100 arnold 14.3 Hours 8.6 min 08/17 05:09 AM 08/17 05:29 AM 43x Complete!
48510 ccheun21 100 arnold 14.83 Hours 8.9 min 08/17 04:40 AM 08/17 05:04 AM 37.4x Complete!
Copyright 2014 Savannah College of Art and Design